Time;durP1;ratioP1;P1;durP2;ratioP2;P2;SDS_P1;SDS_P2;PMS_P1;PMS_P2;Temp;Humidity;BMP_temperature;BMP_pressure;BME280_temperature;BME280_humidity;BME280_pressure;Samples;Min_cycle;Max_cycle;Signal;HPM_P1;HPM_P2
2024/03/31 00:00:22;;;;;;;6.45;4.95;;;9.60;99.90;;;;;;5035150;28;20047;-74
2024/03/31 00:02:48;;;;;;;6.35;4.47;;;9.60;99.90;;;;;;5051472;28;20069;-74
2024/03/31 00:05:14;;;;;;;7.28;5.10;;;9.60;99.90;;;;;;5053296;28;20090;-74
2024/03/31 00:07:40;;;;;;;7.03;4.40;;;9.50;99.90;;;;;;5051855;28;20041;-74
2024/03/31 00:10:06;;;;;;;6.55;4.50;;;9.50;99.90;;;;;;5035389;28;20037;-74
2024/03/31 00:12:31;;;;;;;8.20;4.90;;;9.40;99.90;;;;;;5051153;28;20045;-74
2024/03/31 00:14:57;;;;;;;7.80;5.15;;;9.40;99.90;;;;;;5051671;28;20415;-74
2024/03/31 00:17:23;;;;;;;8.45;4.82;;;9.30;99.90;;;;;;5051837;28;20049;-74
2024/03/31 00:19:49;;;;;;;7.70;5.70;;;9.40;99.90;;;;;;5050953;28;20044;-74
2024/03/31 00:22:18;;;;;;;6.55;5.30;;;9.20;99.90;;;;;;5051584;28;20041;-74
2024/03/31 00:24:43;;;;;;;9.45;5.43;;;9.10;99.90;;;;;;5034593;28;20037;-74
2024/03/31 00:27:12;;;;;;;7.40;5.72;;;9.10;99.90;;;;;;5034651;28;20102;-74
2024/03/31 00:29:38;;;;;;;8.40;5.80;;;9.00;99.90;;;;;;5050973;28;20583;-75
2024/03/31 00:32:05;;;;;;;9.95;5.35;;;9.00;99.90;;;;;;5052337;28;20241;-74
2024/03/31 00:34:30;;;;;;;8.43;5.75;;;9.00;99.90;;;;;;5050791;28;20037;-74
2024/03/31 00:36:56;;;;;;;9.25;5.88;;;9.00;99.90;;;;;;5051028;28;20105;-74
2024/03/31 00:39:22;;;;;;;8.40;5.88;;;9.00;99.90;;;;;;5051067;28;20385;-74
2024/03/31 00:41:47;;;;;;;6.82;5.22;;;9.10;99.90;;;;;;5052531;28;20049;-74
2024/03/31 00:44:13;;;;;;;7.95;5.72;;;9.00;99.90;;;;;;5051794;28;20081;-74
2024/03/31 00:46:39;;;;;;;8.35;5.90;;;9.00;99.90;;;;;;5051983;28;20029;-74
2024/03/31 00:49:05;;;;;;;7.30;5.63;;;9.00;99.90;;;;;;5051375;28;20504;-74
2024/03/31 00:51:30;;;;;;;7.63;5.60;;;9.00;99.90;;;;;;5050784;28;20045;-74
2024/03/31 00:53:56;;;;;;;7.93;5.82;;;8.90;99.90;;;;;;5033948;28;20047;-74
2024/03/31 00:56:21;;;;;;;9.00;5.65;;;8.90;99.90;;;;;;5050651;28;20048;-74
2024/03/31 00:58:47;;;;;;;9.02;6.50;;;8.90;99.90;;;;;;5050834;28;20048;-74
2024/03/31 01:01:13;;;;;;;9.48;6.57;;;8.80;99.90;;;;;;5050012;28;20048;-74
2024/03/31 01:03:38;;;;;;;10.45;7.07;;;8.70;99.90;;;;;;5050194;28;20033;-74
2024/03/31 01:06:18;;;;;;;11.45;7.22;;;8.70;99.90;;;;;;5050269;28;20043;-74
2024/03/31 01:08:44;;;;;;;12.57;7.70;;;8.70;99.90;;;;;;5051881;28;20120;-74
2024/03/31 01:11:10;;;;;;;9.75;7.63;;;8.50;99.90;;;;;;5050207;28;20378;-74
2024/03/31 01:13:36;;;;;;;9.80;6.72;;;8.40;99.90;;;;;;5050236;28;20090;-74
2024/03/31 01:16:02;;;;;;;10.80;8.15;;;8.30;99.90;;;;;;5047922;28;20037;-75
2024/03/31 01:18:30;;;;;;;11.40;7.65;;;8.30;99.90;;;;;;5045093;28;20440;-75
2024/03/31 01:20:55;;;;;;;12.65;7.15;;;8.20;99.90;;;;;;5049606;28;20052;-74
2024/03/31 01:23:29;;;;;;;11.55;7.80;;;8.30;99.90;;;;;;5049797;28;20049;-74
2024/03/31 01:26:01;;;;;;;13.73;9.18;;;8.20;99.90;;;;;;5050263;28;20047;-74
2024/03/31 01:28:28;;;;;;;17.05;8.95;;;8.20;99.90;;;;;;5050577;28;20400;-74
2024/03/31 01:30:54;;;;;;;13.88;9.20;;;8.20;99.90;;;;;;5051518;28;20037;-74
2024/03/31 01:33:20;;;;;;;12.82;9.25;;;8.10;99.90;;;;;;5051192;28;20051;-74
2024/03/31 01:35:45;;;;;;;11.75;9.68;;;8.10;99.90;;;;;;5050273;28;20048;-74
2024/03/31 01:38:11;;;;;;;12.85;9.20;;;8.00;99.90;;;;;;5051511;28;20440;-74
2024/03/31 01:40:37;;;;;;;13.27;8.35;;;8.00;99.90;;;;;;5033311;28;20037;-74
2024/03/31 01:43:03;;;;;;;15.43;9.98;;;8.00;99.90;;;;;;5050959;28;20171;-74
2024/03/31 01:45:28;;;;;;;17.63;9.48;;;8.00;99.90;;;;;;5049935;28;20040;-74
2024/03/31 01:47:54;;;;;;;11.85;8.48;;;7.90;99.90;;;;;;5043293;28;20040;-74
2024/03/31 01:50:20;;;;;;;13.30;9.05;;;7.90;99.90;;;;;;5050150;28;20041;-74
2024/03/31 01:52:46;;;;;;;12.63;8.82;;;8.00;99.90;;;;;;5049679;28;20500;-74
2024/03/31 01:55:11;;;;;;;10.90;8.10;;;8.00;99.90;;;;;;5049818;28;20045;-74
2024/03/31 01:57:37;;;;;;;11.68;8.70;;;8.00;99.90;;;;;;5050118;28;20033;-74
2024/03/31 02:00:03;;;;;;;14.20;8.45;;;8.00;99.90;;;;;;5049845;28;20037;-74
2024/03/31 02:02:29;;;;;;;11.50;8.48;;;8.00;99.90;;;;;;5050902;28;20451;-74
2024/03/31 02:04:54;;;;;;;13.55;8.88;;;8.00;99.90;;;;;;5051094;28;20040;-74
2024/03/31 02:07:20;;;;;;;13.23;9.35;;;8.00;99.90;;;;;;5049983;28;20037;-74
2024/03/31 02:09:46;;;;;;;13.13;9.25;;;8.00;99.90;;;;;;5049701;28;20033;-74
2024/03/31 02:12:11;;;;;;;13.30;8.45;;;8.00;99.90;;;;;;5033409;28;20086;-74
2024/03/31 02:14:37;;;;;;;11.98;8.20;;;8.00;99.90;;;;;;5049459;28;20033;-74
2024/03/31 02:17:02;;;;;;;11.32;8.35;;;8.00;99.90;;;;;;5050021;28;20409;-74
2024/03/31 02:19:28;;;;;;;14.80;9.27;;;8.10;99.90;;;;;;5051054;28;20032;-74
2024/03/31 02:21:54;;;;;;;11.40;8.65;;;8.00;99.90;;;;;;5054775;28;20048;-74
2024/03/31 02:24:19;;;;;;;11.25;8.30;;;8.10;99.90;;;;;;5054359;28;20045;-74
2024/03/31 02:26:45;;;;;;;14.93;9.30;;;8.10;99.90;;;;;;5053568;28;20033;-74
2024/03/31 02:29:11;;;;;;;12.60;9.07;;;8.10;99.90;;;;;;5054916;28;20036;-74
2024/03/31 02:31:37;;;;;;;11.93;8.38;;;8.00;99.90;;;;;;5054914;28;20090;-74
2024/03/31 02:34:03;;;;;;;12.80;8.52;;;8.00;99.90;;;;;;5054482;28;20077;-74
2024/03/31 02:36:29;;;;;;;11.88;8.50;;;8.00;99.90;;;;;;5054640;28;20562;-74
2024/03/31 02:38:55;;;;;;;12.25;8.82;;;8.00;99.90;;;;;;5054436;28;20041;-74
2024/03/31 02:41:21;;;;;;;10.70;8.10;;;8.00;99.90;;;;;;5054716;28;20059;-74
2024/03/31 02:43:47;;;;;;;11.00;8.35;;;7.90;99.90;;;;;;5052894;28;20053;-74
2024/03/31 02:46:13;;;;;;;13.25;8.02;;;8.00;99.90;;;;;;5036734;28;20032;-74
2024/03/31 02:48:38;;;;;;;11.35;8.20;;;7.90;99.90;;;;;;5054642;28;20553;-74
2024/03/31 02:51:04;;;;;;;13.27;8.80;;;7.80;99.90;;;;;;5053053;28;20036;-74
2024/03/31 02:53:29;;;;;;;10.27;8.07;;;7.80;99.90;;;;;;5053943;28;20078;-74
2024/03/31 02:55:55;;;;;;;11.43;7.88;;;7.80;99.90;;;;;;5036564;28;20041;-74
2024/03/31 02:58:21;;;;;;;13.27;8.48;;;7.70;99.90;;;;;;5054560;28;20041;-74
2024/03/31 03:00:46;;;;;;;9.38;6.95;;;7.60;99.90;;;;;;5052867;28;20052;-74
2024/03/31 03:03:12;;;;;;;7.70;5.93;;;7.50;99.90;;;;;;5052518;28;20041;-74
2024/03/31 03:05:38;;;;;;;9.70;6.30;;;7.60;99.90;;;;;;5052446;28;20436;-74
2024/03/31 03:08:04;;;;;;;13.43;5.60;;;7.50;99.90;;;;;;5036469;28;20062;-74
2024/03/31 03:10:29;;;;;;;23.38;6.25;;;7.30;99.90;;;;;;5052955;28;20032;-74
2024/03/31 03:12:55;;;;;;;12.57;5.90;;;7.40;99.90;;;;;;5053671;28;20291;-74
2024/03/31 03:15:21;;;;;;;8.85;5.55;;;7.20;99.90;;;;;;5052796;28;20041;-74
2024/03/31 03:17:47;;;;;;;58.72;7.57;;;7.20;99.90;;;;;;5053094;28;20124;-74
2024/03/31 03:20:12;;;;;;;21.67;6.47;;;7.10;99.90;;;;;;5052529;28;20091;-74
2024/03/31 03:22:38;;;;;;;10.02;5.00;;;7.10;99.90;;;;;;5052272;28;20036;-74
2024/03/31 03:25:04;;;;;;;7.18;5.00;;;7.00;99.90;;;;;;5052384;28;20505;-74
2024/03/31 03:27:30;;;;;;;8.95;6.00;;;7.10;99.90;;;;;;5054028;28;20086;-74
2024/03/31 03:29:55;;;;;;;34.05;7.32;;;7.20;99.90;;;;;;5053640;28;20068;-74
2024/03/31 03:32:21;;;;;;;27.55;6.45;;;7.20;99.90;;;;;;5053617;28;20071;-74
2024/03/31 03:34:47;;;;;;;62.17;8.82;;;7.10;99.90;;;;;;5052307;28;20508;-75
2024/03/31 03:37:12;;;;;;;12.82;5.75;;;7.10;99.90;;;;;;5052239;28;20052;-74
2024/03/31 03:39:39;;;;;;;29.67;7.47;;;7.10;99.90;;;;;;5052359;28;20045;-74
2024/03/31 03:42:05;;;;;;;13.95;6.95;;;7.10;99.90;;;;;;5053532;28;20535;-74
2024/03/31 03:44:31;;;;;;;60.40;9.27;;;7.00;99.90;;;;;;5035147;28;20103;-74
2024/03/31 03:46:57;;;;;;;26.60;8.18;;;7.00;99.90;;;;;;5051933;28;20036;-74
2024/03/31 03:49:22;;;;;;;10.60;6.97;;;7.10;99.90;;;;;;5051991;28;20086;-74
2024/03/31 03:51:48;;;;;;;41.05;9.50;;;7.10;99.90;;;;;;5053182;28;20182;-74
2024/03/31 03:54:14;;;;;;;31.48;8.48;;;7.00;99.90;;;;;;5053046;28;20044;-74
2024/03/31 03:56:44;;;;;;;31.17;7.88;;;7.10;99.90;;;;;;5051881;28;20041;-74
2024/03/31 03:59:11;;;;;;;20.52;7.63;;;7.10;99.90;;;;;;5035547;28;20171;-74
2024/03/31 04:01:37;;;;;;;60.05;11.10;;;7.10;99.90;;;;;;5053223;28;20045;-74
2024/03/31 04:04:03;;;;;;;62.50;10.93;;;7.10;99.90;;;;;;5051410;28;20041;-74
2024/03/31 04:06:29;;;;;;;48.92;11.18;;;7.00;99.90;;;;;;5051482;28;20048;-74
2024/03/31 04:08:55;;;;;;;18.08;8.52;;;7.10;99.90;;;;;;5034878;28;20080;-74
2024/03/31 04:11:24;;;;;;;26.50;10.05;;;7.10;99.90;;;;;;5051632;28;20112;-74
2024/03/31 04:13:50;;;;;;;19.90;9.15;;;7.10;99.90;;;;;;5051215;28;20048;-74
2024/03/31 04:16:16;;;;;;;19.50;9.10;;;7.20;99.90;;;;;;5051688;28;20048;-74
2024/03/31 04:18:42;;;;;;;17.27;8.52;;;7.20;99.90;;;;;;5052910;28;20115;-74
2024/03/31 04:21:08;;;;;;;15.52;8.25;;;7.30;99.90;;;;;;5051695;28;20084;-74
2024/03/31 04:23:34;;;;;;;17.65;9.57;;;7.30;99.90;;;;;;5051237;28;20132;-74
2024/03/31 04:26:00;;;;;;;18.98;9.93;;;7.30;99.90;;;;;;5050995;28;20496;-74
2024/03/31 04:28:26;;;;;;;17.35;9.30;;;7.30;99.90;;;;;;5052829;28;20047;-74
2024/03/31 04:30:51;;;;;;;20.48;10.05;;;7.30;99.90;;;;;;5051367;28;20076;-74
2024/03/31 04:33:17;;;;;;;16.83;9.68;;;7.30;99.90;;;;;;5050914;28;20040;-75
2024/03/31 04:35:42;;;;;;;18.30;10.77;;;7.30;99.90;;;;;;5034661;28;20040;-74
2024/03/31 04:38:08;;;;;;;17.85;10.25;;;7.30;99.90;;;;;;5051506;28;20045;-74
2024/03/31 04:40:34;;;;;;;20.10;11.68;;;7.40;99.90;;;;;;5051233;28;20048;-74
2024/03/31 04:43:00;;;;;;;22.60;11.88;;;7.50;99.90;;;;;;5050303;28;20037;-74
2024/03/31 04:45:26;;;;;;;20.33;11.55;;;7.50;99.90;;;;;;5052137;28;20071;-74
2024/03/31 04:47:52;;;;;;;19.25;11.07;;;7.60;99.90;;;;;;5052418;28;20044;-74
2024/03/31 04:50:19;;;;;;;17.30;10.93;;;7.50;99.90;;;;;;5050787;28;20040;-74
2024/03/31 04:52:45;;;;;;;19.85;12.25;;;7.60;99.90;;;;;;5051823;28;20146;-74
2024/03/31 04:55:10;;;;;;;20.63;12.80;;;7.60;99.90;;;;;;5052155;28;20072;-74
2024/03/31 04:57:36;;;;;;;22.38;12.40;;;7.60;99.90;;;;;;5050846;28;20051;-74
2024/03/31 05:00:02;;;;;;;19.70;12.20;;;7.50;99.90;;;;;;5050683;28;20063;-74
2024/03/31 05:02:29;;;;;;;18.83;12.35;;;7.50;99.90;;;;;;5051521;28;20049;-74
2024/03/31 05:04:54;;;;;;;23.10;13.60;;;7.60;99.90;;;;;;5052225;28;20037;-74
2024/03/31 05:07:20;;;;;;;22.50;13.32;;;7.60;99.90;;;;;;5050749;28;20408;-74
2024/03/31 05:09:45;;;;;;;25.13;14.30;;;7.60;99.90;;;;;;5050707;28;20588;-74
2024/03/31 05:12:11;;;;;;;30.95;15.23;;;7.80;99.90;;;;;;5050772;28;20033;-74
2024/03/31 05:14:37;;;;;;;28.67;14.60;;;7.70;99.90;;;;;;5051475;28;20044;-74
2024/03/31 05:17:07;;;;;;;24.95;14.82;;;7.90;99.90;;;;;;5050344;28;20079;-74
2024/03/31 05:19:33;;;;;;;27.17;16.10;;;7.80;99.90;;;;;;5050615;28;20076;-74
2024/03/31 05:21:58;;;;;;;25.77;15.35;;;7.80;99.90;;;;;;5050462;28;20087;-75
2024/03/31 05:24:24;;;;;;;25.70;15.45;;;7.80;99.90;;;;;;5049431;28;20041;-74
2024/03/31 05:26:50;;;;;;;26.73;14.40;;;7.80;99.90;;;;;;5050200;28;20489;-74
2024/03/31 05:29:18;;;;;;;21.67;13.93;;;7.80;99.90;;;;;;5051321;28;20509;-74
2024/03/31 05:31:44;;;;;;;19.13;12.63;;;7.80;99.90;;;;;;5051464;28;20177;-74
2024/03/31 05:34:09;;;;;;;22.77;13.55;;;7.80;99.90;;;;;;5050101;28;20085;-75
2024/03/31 05:36:35;;;;;;;21.83;13.40;;;7.90;99.90;;;;;;5051147;28;20048;-74
2024/03/31 05:39:01;;;;;;;22.23;13.18;;;7.90;99.90;;;;;;5050128;28;20045;-74
2024/03/31 05:41:27;;;;;;;21.20;12.52;;;7.90;99.90;;;;;;5050226;28;20040;-74
2024/03/31 05:43:52;;;;;;;18.92;11.73;;;7.80;99.90;;;;;;5050998;28;20493;-74
2024/03/31 05:46:19;;;;;;;17.60;11.82;;;7.90;99.90;;;;;;5051241;28;20037;-74
2024/03/31 05:48:44;;;;;;;15.93;12.32;;;7.90;99.90;;;;;;5050087;28;20467;-74
2024/03/31 05:51:10;;;;;;;20.55;12.23;;;7.90;99.90;;;;;;5050153;28;20124;-74
2024/03/31 05:53:36;;;;;;;18.83;12.77;;;8.00;99.90;;;;;;5051002;28;20037;-74
2024/03/31 05:56:04;;;;;;;19.48;13.20;;;8.00;99.90;;;;;;5054203;28;20072;-74
2024/03/31 05:58:30;;;;;;;20.13;13.35;;;8.00;99.90;;;;;;5055477;28;20098;-74
2024/03/31 06:00:55;;;;;;;19.83;12.60;;;8.00;99.90;;;;;;5055179;28;20485;-74
2024/03/31 06:03:21;;;;;;;21.60;14.68;;;8.00;99.90;;;;;;5055123;28;20413;-74
2024/03/31 06:05:47;;;;;;;19.42;13.38;;;8.00;99.90;;;;;;5054029;28;20487;-74
2024/03/31 06:08:12;;;;;;;21.33;12.90;;;8.10;99.90;;;;;;5054169;28;20029;-74
2024/03/31 06:10:38;;;;;;;21.70;13.60;;;8.10;99.90;;;;;;5053804;28;20040;-74
2024/03/31 06:13:05;;;;;;;21.65;13.75;;;8.10;99.90;;;;;;5053573;28;20118;-74
2024/03/31 06:15:31;;;;;;;18.35;13.45;;;8.10;99.90;;;;;;5053989;28;20049;-74
2024/03/31 06:17:56;;;;;;;19.75;14.45;;;8.00;99.90;;;;;;5053995;28;20044;-75
2024/03/31 06:20:22;;;;;;;20.20;14.45;;;8.10;99.90;;;;;;5054875;28;20049;-74
2024/03/31 06:22:48;;;;;;;21.90;14.23;;;8.20;99.90;;;;;;5053472;28;20048;-73
2024/03/31 06:25:14;;;;;;;17.42;13.25;;;8.10;99.90;;;;;;5052589;28;20037;-73
2024/03/31 06:27:40;;;;;;;17.55;13.55;;;8.30;99.90;;;;;;5053156;28;20036;-73
2024/03/31 06:30:06;;;;;;;20.48;13.05;;;8.10;99.90;;;;;;5054324;28;20408;-74
2024/03/31 06:32:31;;;;;;;17.27;12.52;;;8.20;99.90;;;;;;5052714;28;20040;-74
2024/03/31 06:34:57;;;;;;;16.85;12.73;;;8.30;99.90;;;;;;5054460;28;20500;-73
2024/03/31 06:37:23;;;;;;;19.52;13.45;;;8.20;99.90;;;;;;5053883;28;20044;-73
2024/03/31 06:39:49;;;;;;;19.10;13.70;;;8.30;99.90;;;;;;5053399;28;20037;-74
2024/03/31 06:42:16;;;;;;;18.45;12.52;;;8.20;99.90;;;;;;5036922;28;20123;-73
2024/03/31 06:44:42;;;;;;;14.82;11.77;;;8.30;99.90;;;;;;5052788;28;20123;-74
2024/03/31 06:47:07;;;;;;;17.17;12.32;;;8.30;99.90;;;;;;5053360;28;20117;-74
2024/03/31 06:49:33;;;;;;;15.32;12.50;;;8.30;99.90;;;;;;5053047;28;20480;-74
2024/03/31 06:51:59;;;;;;;16.27;12.80;;;8.30;99.90;;;;;;5054687;28;20080;-74
2024/03/31 06:54:24;;;;;;;15.82;10.45;;;8.20;99.90;;;;;;5052814;28;20457;-74
2024/03/31 06:56:51;;;;;;;17.88;12.00;;;8.30;99.90;;;;;;5054247;28;20397;-74
2024/03/31 06:59:16;;;;;;;14.80;11.50;;;8.30;99.90;;;;;;5052845;28;20043;-74
2024/03/31 07:01:42;;;;;;;16.45;12.23;;;8.30;99.90;;;;;;5053136;28;20458;-73
2024/03/31 07:04:08;;;;;;;15.27;11.48;;;8.40;99.90;;;;;;5052603;28;20033;-74
2024/03/31 07:06:33;;;;;;;13.60;11.38;;;8.30;99.90;;;;;;5052416;28;20094;-74
2024/03/31 07:08:59;;;;;;;17.17;11.70;;;8.40;99.90;;;;;;5052792;28;20086;-73
2024/03/31 07:11:24;;;;;;;14.35;11.48;;;8.50;99.90;;;;;;5052483;28;20041;-74
2024/03/31 07:13:50;;;;;;;15.23;11.13;;;8.40;99.90;;;;;;5053517;28;20037;-74
2024/03/31 07:16:16;;;;;;;13.45;10.95;;;8.40;99.90;;;;;;5052934;28;20081;-74
2024/03/31 07:18:41;;;;;;;15.25;11.05;;;8.40;99.90;;;;;;5052836;28;20045;-73
2024/03/31 07:21:07;;;;;;;15.90;11.30;;;8.40;99.90;;;;;;5051590;28;20078;-74
2024/03/31 07:23:32;;;;;;;15.45;11.85;;;8.40;99.90;;;;;;5052270;28;20037;-74
2024/03/31 07:26:00;;;;;;;16.35;11.73;;;8.40;99.90;;;;;;5052601;28;20040;-74
2024/03/31 07:28:26;;;;;;;14.18;10.57;;;8.50;99.90;;;;;;5052740;28;20108;-74
2024/03/31 07:30:53;;;;;;;14.50;11.10;;;8.50;99.90;;;;;;5052330;28;20036;-74
2024/03/31 07:33:18;;;;;;;14.55;10.82;;;8.50;99.90;;;;;;5050878;28;20037;-74
2024/03/31 07:35:45;;;;;;;14.52;10.30;;;8.60;99.90;;;;;;5052472;28;20045;-74
2024/03/31 07:38:11;;;;;;;14.23;10.63;;;8.50;99.90;;;;;;5052504;28;20041;-74
2024/03/31 07:40:37;;;;;;;12.75;10.18;;;8.50;99.90;;;;;;5052192;28;20087;-73
2024/03/31 07:43:03;;;;;;;16.70;10.27;;;8.60;99.90;;;;;;5051990;28;20045;-74
2024/03/31 07:45:29;;;;;;;13.20;10.52;;;8.60;99.90;;;;;;5051721;28;20044;-72
2024/03/31 07:47:55;;;;;;;14.25;10.15;;;8.50;99.90;;;;;;5052518;28;20055;-73
2024/03/31 07:50:21;;;;;;;14.05;10.45;;;8.50;99.90;;;;;;5051974;28;20471;-73
2024/03/31 07:52:46;;;;;;;12.63;9.50;;;8.60;99.90;;;;;;5051683;28;20041;-73
2024/03/31 07:55:12;;;;;;;11.95;9.55;;;8.60;99.90;;;;;;5053094;28;20410;-73
2024/03/31 07:57:38;;;;;;;12.20;9.68;;;8.60;99.90;;;;;;5052070;28;20586;-73
2024/03/31 08:00:04;;;;;;;12.00;8.82;;;8.60;99.90;;;;;;5051837;28;20678;-73
2024/03/31 08:02:29;;;;;;;11.77;10.13;;;8.60;99.90;;;;;;5051442;28;20033;-73
2024/03/31 08:04:55;;;;;;;15.05;10.15;;;8.60;99.90;;;;;;5053080;28;20086;-73
2024/03/31 08:07:21;;;;;;;12.30;9.35;;;8.60;99.90;;;;;;5051858;28;20416;-73
2024/03/31 08:09:46;;;;;;;12.60;9.23;;;8.70;99.90;;;;;;5051593;28;20028;-73
2024/03/31 08:12:12;;;;;;;13.18;9.77;;;8.70;99.90;;;;;;5051805;28;20044;-72
2024/03/31 08:14:38;;;;;;;10.30;8.65;;;8.80;99.90;;;;;;5052715;28;20051;-73
2024/03/31 08:17:03;;;;;;;10.95;8.95;;;8.70;99.90;;;;;;5033892;28;20044;-73
2024/03/31 08:19:29;;;;;;;12.73;8.98;;;8.80;99.90;;;;;;5052772;28;20068;-72
2024/03/31 08:21:55;;;;;;;10.30;9.07;;;8.80;99.90;;;;;;5053162;28;20470;-73
2024/03/31 08:24:20;;;;;;;12.23;8.57;;;8.80;99.90;;;;;;5051195;28;20107;-73
2024/03/31 08:26:46;;;;;;;9.98;8.77;;;8.90;99.90;;;;;;5051219;28;20036;-73
2024/03/31 08:29:12;;;;;;;12.85;9.63;;;9.00;99.90;;;;;;5052473;28;20037;-73
2024/03/31 08:31:37;;;;;;;12.80;9.30;;;9.10;99.90;;;;;;5051388;28;20106;-73
2024/03/31 08:34:03;;;;;;;13.45;9.20;;;9.30;99.90;;;;;;5034579;28;20044;-73
2024/03/31 08:36:29;;;;;;;12.90;9.70;;;9.40;99.90;;;;;;5052280;28;20159;-72
2024/03/31 08:38:54;;;;;;;11.82;9.40;;;9.40;99.90;;;;;;5052612;28;20041;-72
2024/03/31 08:41:38;;;;;;;12.32;8.80;;;9.60;99.90;;;;;;5050807;28;20549;-73
2024/03/31 08:44:06;;;;;;;11.57;9.38;;;9.50;99.90;;;;;;5051935;28;20496;-73
2024/03/31 08:46:32;;;;;;;12.70;10.18;;;9.50;99.90;;;;;;5050890;28;20099;-72
2024/03/31 08:48:58;;;;;;;10.65;9.50;;;9.50;99.90;;;;;;5034385;28;20037;-73
2024/03/31 08:51:24;;;;;;;13.63;10.02;;;9.50;99.90;;;;;;5050792;28;20044;-73
2024/03/31 08:53:51;;;;;;;12.23;10.15;;;9.50;99.90;;;;;;5051677;28;20033;-73
2024/03/31 08:56:17;;;;;;;13.93;10.40;;;9.60;99.90;;;;;;5050846;28;20124;-72
2024/03/31 08:58:43;;;;;;;14.20;11.10;;;9.70;99.90;;;;;;5052133;28;20500;-73
2024/03/31 09:01:13;;;;;;;14.40;11.93;;;9.80;99.90;;;;;;5050530;28;20114;-73
2024/03/31 09:03:40;;;;;;;15.02;11.50;;;9.80;99.90;;;;;;5050491;28;20115;-73
2024/03/31 09:06:06;;;;;;;15.75;12.25;;;9.90;99.90;;;;;;5050521;28;20049;-73
2024/03/31 09:08:32;;;;;;;17.67;13.43;;;9.90;99.90;;;;;;5051549;28;20115;-72
2024/03/31 09:10:57;;;;;;;19.50;13.38;;;9.80;99.90;;;;;;5050467;28;20515;-72
2024/03/31 09:13:23;;;;;;;16.08;12.80;;;9.80;99.90;;;;;;5050278;28;20094;-72
2024/03/31 09:15:49;;;;;;;18.08;12.43;;;9.80;99.90;;;;;;5050572;28;20049;-73
2024/03/31 09:18:14;;;;;;;16.58;12.25;;;9.90;99.90;;;;;;5050850;28;20052;-73
2024/03/31 09:20:40;;;;;;;17.02;12.48;;;9.90;99.90;;;;;;5050523;28;20496;-73
2024/03/31 09:23:06;;;;;;;19.80;14.23;;;9.90;99.90;;;;;;5051118;28;20037;-73
2024/03/31 09:25:32;;;;;;;19.35;13.35;;;9.80;99.90;;;;;;5051572;28;20037;-72
2024/03/31 09:28:00;;;;;;;19.33;13.93;;;9.90;99.90;;;;;;5051510;28;20170;-72
2024/03/31 09:30:29;;;;;;;18.02;13.02;;;10.00;99.90;;;;;;5049998;28;20049;-72
2024/03/31 09:32:55;;;;;;;15.65;12.70;;;10.00;99.90;;;;;;5050180;28;20049;-73
2024/03/31 09:35:22;;;;;;;16.50;12.55;;;10.10;99.90;;;;;;5051514;28;20519;-72
2024/03/31 09:37:49;;;;;;;19.05;14.80;;;10.30;99.90;;;;;;5051506;28;20424;-73
2024/03/31 09:40:15;;;;;;;18.67;14.07;;;10.50;99.90;;;;;;5050064;28;20083;-73
2024/03/31 09:42:41;;;;;;;18.75;14.57;;;10.50;99.90;;;;;;5049711;28;20073;-72
2024/03/31 09:45:11;;;;;;;17.38;12.25;;;10.40;99.90;;;;;;5051266;28;20029;-73
2024/03/31 09:47:49;;;;;;;16.55;12.73;;;10.50;99.90;;;;;;5050268;28;20033;-73
2024/03/31 09:50:19;;;;;;;15.98;11.57;;;10.50;99.90;;;;;;5051268;28;20420;-73
2024/03/31 09:52:49;;;;;;;16.40;12.35;;;10.50;99.90;;;;;;5049571;28;20200;-73
2024/03/31 09:55:21;;;;;;;18.52;13.27;;;10.50;99.90;;;;;;5050138;28;20037;-73
2024/03/31 09:57:54;;;;;;;17.05;12.98;;;10.50;99.90;;;;;;5050587;28;20067;-72
2024/03/31 10:00:22;;;;;;;17.27;12.27;;;10.50;99.90;;;;;;5049799;28;20037;-73
2024/03/31 10:03:04;;;;;;;15.70;12.27;;;10.60;99.90;;;;;;5051021;28;20267;-72
2024/03/31 10:05:37;;;;;;;17.88;13.00;;;10.60;99.90;;;;;;5050136;28;20039;-73
2024/03/31 10:08:03;;;;;;;17.58;13.05;;;10.60;99.90;;;;;;5050035;28;20118;-73
2024/03/31 10:10:29;;;;;;;18.45;13.30;;;10.60;99.90;;;;;;5049863;28;20037;-73
2024/03/31 10:12:57;;;;;;;17.13;12.10;;;10.70;99.90;;;;;;5050921;28;20040;-69
2024/03/31 10:15:23;;;;;;;17.70;12.15;;;10.90;99.90;;;;;;5051000;28;20045;-69
2024/03/31 10:17:50;;;;;;;17.38;11.60;;;11.10;99.90;;;;;;5048597;28;20114;-70
2024/03/31 10:20:20;;;;;;;16.73;11.82;;;11.10;99.90;;;;;;5040713;28;20044;-70
2024/03/31 10:22:46;;;;;;;18.38;11.38;;;11.30;99.90;;;;;;5044359;28;20412;-69
2024/03/31 10:25:12;;;;;;;16.08;12.50;;;11.30;99.90;;;;;;5051018;28;20029;-70
2024/03/31 10:27:42;;;;;;;15.80;12.02;;;11.20;99.90;;;;;;5050221;28;20036;-69
2024/03/31 10:30:08;;;;;;;16.85;12.57;;;11.30;99.90;;;;;;5038466;28;20094;-68
2024/03/31 10:32:35;;;;;;;16.00;10.82;;;11.20;99.90;;;;;;5010702;28;20207;-70
2024/03/31 10:35:03;;;;;;;15.95;12.07;;;11.20;99.90;;;;;;4991301;28;20156;-69
2024/03/31 10:37:29;;;;;;;15.70;11.85;;;11.00;99.90;;;;;;5009095;28;20068;-68
2024/03/31 10:39:55;;;;;;;17.65;11.23;;;11.10;99.90;;;;;;5012405;28;20052;-69
2024/03/31 10:42:24;;;;;;;14.35;10.13;;;11.20;99.90;;;;;;5011913;28;20139;-69
2024/03/31 10:44:52;;;;;;;13.65;10.68;;;11.30;99.90;;;;;;5013448;28;20045;-69
2024/03/31 10:47:19;;;;;;;14.27;10.38;;;11.40;99.90;;;;;;5011422;28;20041;-70
2024/03/31 10:49:45;;;;;;;15.60;10.75;;;11.60;99.90;;;;;;5014264;28;20409;-69
2024/03/31 10:52:15;;;;;;;14.60;10.57;;;11.70;99.90;;;;;;5014650;28;20303;-69
2024/03/31 10:54:41;;;;;;;14.30;10.50;;;11.80;99.90;;;;;;5013517;28;20237;-69
2024/03/31 10:57:11;;;;;;;14.32;11.02;;;12.10;99.90;;;;;;5013068;28;20836;-69
2024/03/31 10:59:41;;;;;;;14.00;10.77;;;12.10;99.90;;;;;;5013643;28;20962;-69
2024/03/31 11:02:11;;;;;;;16.10;11.32;;;12.10;99.90;;;;;;5012124;28;20142;-70
2024/03/31 11:04:37;;;;;;;15.13;10.18;;;12.00;99.90;;;;;;5014561;28;20056;-69
2024/03/31 11:07:06;;;;;;;14.00;10.68;;;12.10;99.90;;;;;;5012781;28;20033;-69
2024/03/31 11:09:33;;;;;;;15.90;11.32;;;12.10;99.90;;;;;;5003655;28;20094;-70
2024/03/31 11:11:59;;;;;;;16.75;12.98;;;12.20;99.90;;;;;;5074187;28;20464;-70
2024/03/31 11:14:26;;;;;;;15.82;11.77;;;12.20;99.90;;;;;;5073561;28;20137;-70
2024/03/31 11:16:52;;;;;;;18.98;11.68;;;12.00;99.90;;;;;;5074080;28;20055;-70
2024/03/31 11:19:21;;;;;;;18.67;11.20;;;11.90;99.90;;;;;;5073784;28;20400;-70
2024/03/31 11:21:46;;;;;;;18.85;12.57;;;12.00;99.90;;;;;;5073964;28;20049;-70
2024/03/31 11:24:13;;;;;;;15.48;11.18;;;11.90;99.90;;;;;;5073711;28;20044;-69
2024/03/31 11:26:40;;;;;;;15.23;10.35;;;12.00;99.90;;;;;;5072339;28;20032;-70
2024/03/31 11:29:08;;;;;;;13.52;10.05;;;12.10;99.90;;;;;;5042317;28;20064;-70
2024/03/31 11:31:36;;;;;;;13.82;9.85;;;12.10;99.90;;;;;;5041284;28;20033;-70
2024/03/31 11:34:03;;;;;;;16.40;11.73;;;12.20;99.90;;;;;;5046485;28;20063;-70
2024/03/31 11:36:29;;;;;;;14.60;10.90;;;12.30;99.90;;;;;;5052973;28;20045;-70
2024/03/31 11:38:54;;;;;;;14.95;10.98;;;12.40;99.90;;;;;;5052353;28;20492;-69
2024/03/31 11:41:20;;;;;;;12.55;10.70;;;12.40;99.90;;;;;;5053092;28;20044;-69
2024/03/31 11:43:46;;;;;;;13.30;9.93;;;12.50;99.90;;;;;;5049401;28;20071;-70
2024/03/31 11:46:12;;;;;;;14.63;11.10;;;12.40;99.90;;;;;;5043913;28;20044;-71
2024/03/31 11:48:38;;;;;;;14.77;10.80;;;12.30;99.90;;;;;;5042454;28;20037;-70
2024/03/31 11:51:04;;;;;;;17.38;10.65;;;12.40;99.90;;;;;;5049785;28;20139;-70
2024/03/31 11:53:29;;;;;;;13.65;10.45;;;12.50;99.90;;;;;;5052488;28;20112;-70
2024/03/31 11:55:55;;;;;;;12.52;9.82;;;12.60;99.90;;;;;;5053430;28;20128;-70
2024/03/31 11:58:21;;;;;;;11.88;9.13;;;12.70;99.90;;;;;;5053144;28;20040;-70
2024/03/31 12:00:51;;;;;;;12.88;9.93;;;12.80;99.90;;;;;;5035073;28;20128;-70
2024/03/31 12:03:17;;;;;;;12.18;10.10;;;13.00;99.90;;;;;;5051409;28;20048;-70
2024/03/31 12:05:47;;;;;;;13.20;10.73;;;13.10;99.90;;;;;;5051789;28;20033;-70
2024/03/31 12:08:14;;;;;;;13.35;9.77;;;13.10;99.90;;;;;;5053376;28;20037;-70
2024/03/31 12:10:40;;;;;;;16.65;9.73;;;13.00;99.90;;;;;;5052976;28;20112;-70
2024/03/31 12:13:06;;;;;;;12.13;10.07;;;13.00;99.90;;;;;;5052613;28;20187;-70
2024/03/31 12:15:32;;;;;;;13.55;10.27;;;12.90;99.90;;;;;;5051626;28;20048;-70
2024/03/31 12:17:59;;;;;;;14.65;9.50;;;12.80;99.90;;;;;;5051573;28;20041;-70
2024/03/31 12:20:25;;;;;;;13.80;9.80;;;13.00;99.90;;;;;;5051877;28;20044;-70
2024/03/31 12:22:51;;;;;;;15.10;10.40;;;13.00;99.90;;;;;;5051098;28;20493;-70
2024/03/31 12:25:18;;;;;;;11.75;9.68;;;13.00;99.90;;;;;;5052754;28;20508;-70
2024/03/31 12:27:45;;;;;;;13.30;10.60;;;13.10;99.90;;;;;;5051483;28;20090;-70
2024/03/31 12:30:11;;;;;;;12.45;10.45;;;13.10;99.90;;;;;;5051271;28;20037;-70
2024/03/31 12:32:37;;;;;;;13.73;10.02;;;13.20;99.90;;;;;;5050766;28;20069;-70
2024/03/31 12:35:04;;;;;;;11.40;9.65;;;13.20;99.90;;;;;;5052703;28;20142;-70